首页
METAR-TAF:

METAR-TAF

机场 :

佐賀機場

佐賀, 日本

纬度: 33-09N, 经度: 130-18E, 海拔: 2米

当前天气观测

该预报发布于27分钟前的10:39 UTC
风速6节,风向
温度 22°C
湿度 94%
气压 1008 hPa
能見度: 4500
少量云层高于2000英尺
散云层高于4000英尺
多云层高于4500英尺
阵雨, 轻雾

METAR: RJFS 261039Z 19006KT 4500 SHRA BR FEW020 SCT040 BKN045 22/21 Q1008 RMK 1CU020 3CU040 5CU045 A2977

时间: 20:06 (11:06 UTC)

预报

该预报发布于1小时和46分钟前的09:20 UTC
预报有效从26日的 09点(UTC)到 27日的 12点(UTC)
风速16节,风向南转西南
能見度: 7000
少量云层高于800英尺
散云层高于1500英尺
多云层高于2500英尺
小阵雨
成为
从 26日的 09点(UTC)到 26日的 11点(UTC)
风速14节,风向
短暂存在
从 26日的 10点(UTC)到 26日的 13点(UTC)
能見度: 3000
阵雨, 轻雾
短暂存在
从 26日的 13点(UTC)到 26日的 18点(UTC)
能見度: 3000
少量云层高于500英尺
多云层高于800英尺
多云层高于1000英尺
少量云层高于2000英尺, 积雨云.
雷暴, 雨, 轻雾
成为
从 26日的 18点(UTC)到 26日的 21点(UTC)
风速8节,风向西南
短暂存在
从 26日的 18点(UTC)到 27日的 00点(UTC)
能見度: 4000
少量云层高于300英尺
多云层高于500英尺
多云层高于800英尺
小阵雨, 轻雾,

TAF: RJFS 260920Z 2609/2712 20016KT 7000 -SHRA FEW008 SCT015 BKN025 BECMG 2609/2611 17014KT TEMPO 2610/2613 3000 SHRA BR TEMPO 2613/2618 3000 TSRA BR FEW005 BKN008 BKN010 FEW020CB BECMG 2618/2621 22008KT TEMPO 2618/2700 4000 -SHRA BR FEW003 BKN005 BKN008

超过4000个机场的气象观测和天气预报(METAR&TAF报告)。

可查询的气象台以黄色和红色小点在地图上表示。

将鼠标移到小点上方,可查看气象台名称。

然后点击查看天气观测和预报。

如需切换地图:点击带黑十字的绿色按钮放大地图;点击带横线的绿色按钮缩小地图;或者点击绿色箭头查看邻近地区的地图。


METAR-TAF: